Time;durP1;ratioP1;P1;durP2;ratioP2;P2;SDS_P1;SDS_P2;PMS_P1;PMS_P2;Temp;Humidity;BMP_temperature;BMP_pressure;BME280_temperature;BME280_humidity;BME280_pressure;Samples;Min_cycle;Max_cycle;Signal;HPM_P1;HPM_P2
2024/03/22 00:01:44;;;;;;;27.90;6.35;;;;;;;9.62;100.00;101093.28;4955795;28;20059;-63
2024/03/22 00:04:11;;;;;;;28.85;5.38;;;;;;;9.63;100.00;101091.34;4949180;28;20042;-62
2024/03/22 00:06:38;;;;;;;34.35;5.25;;;;;;;9.61;100.00;101085.31;4953973;28;20061;-62
2024/03/22 00:09:05;;;;;;;32.90;8.88;;;;;;;9.60;100.00;101089.22;4946524;28;20036;-63
2024/03/22 00:11:32;;;;;;;36.50;7.18;;;;;;;9.58;100.00;101094.28;4945931;28;20047;-62
2024/03/22 00:13:58;;;;;;;30.85;6.47;;;;;;;9.58;100.00;101091.50;4947221;28;20039;-63
2024/03/22 00:16:25;;;;;;;33.17;7.63;;;;;;;9.58;100.00;101091.50;4953802;28;20421;-62
2024/03/22 00:18:51;;;;;;;44.45;7.50;;;;;;;9.58;100.00;101094.28;4948563;28;20051;-62
2024/03/22 00:21:17;;;;;;;33.10;7.00;;;;;;;9.56;100.00;101096.53;4960277;28;20052;-62
2024/03/22 00:23:45;;;;;;;40.97;7.32;;;;;;;9.55;100.00;101100.47;4950643;28;20043;-62
2024/03/22 00:26:11;;;;;;;33.13;9.02;;;;;;;9.54;100.00;101101.59;4959609;28;20831;-62
2024/03/22 00:28:37;;;;;;;31.50;6.78;;;;;;;9.52;100.00;101103.88;4960234;28;20058;-62
2024/03/22 00:31:04;;;;;;;50.75;10.48;;;;;;;9.52;100.00;101104.69;4945797;28;20066;-62
2024/03/22 00:33:30;;;;;;;45.38;8.20;;;;;;;9.51;100.00;101096.72;4945670;28;20581;-62
2024/03/22 00:35:57;;;;;;;40.03;8.57;;;;;;;9.51;100.00;101097.53;4946115;28;20044;-62
2024/03/22 00:38:23;;;;;;;41.13;7.22;;;;;;;9.49;100.00;101093.47;4929969;29;20039;-63
2024/03/22 00:40:49;;;;;;;43.92;9.23;;;;;;;9.46;100.00;101106.00;4943744;28;20720;-62
2024/03/22 00:43:16;;;;;;;44.63;8.25;;;;;;;9.44;100.00;101096.41;4945883;28;20047;-62
2024/03/22 00:45:42;;;;;;;44.25;7.78;;;;;;;9.40;100.00;101104.53;4949952;28;20054;-62
2024/03/22 00:48:08;;;;;;;39.90;8.07;;;;;;;9.37;100.00;101096.13;4945119;28;20043;-63
2024/03/22 00:50:34;;;;;;;45.13;9.05;;;;;;;9.31;100.00;101111.25;4931327;29;20062;-62
2024/03/22 00:53:03;;;;;;;47.65;9.93;;;;;;;9.27;100.00;101097.25;4959839;28;20040;-62
2024/03/22 00:55:29;;;;;;;37.47;9.48;;;;;;;9.26;100.00;101105.88;4957363;28;20059;-63
2024/03/22 00:57:55;;;;;;;53.97;9.57;;;;;;;9.19;100.00;101101.66;4961101;28;20952;-63
2024/03/22 01:00:22;;;;;;;42.15;7.78;;;;;;;9.15;100.00;101100.72;4940448;28;20549;-62
2024/03/22 01:02:50;;;;;;;39.03;7.38;;;;;;;9.10;100.00;101109.16;4944590;28;20720;-62
2024/03/22 01:05:17;;;;;;;35.72;6.55;;;;;;;9.08;100.00;101116.94;4941422;28;20635;-62
2024/03/22 01:07:43;;;;;;;38.33;10.52;;;;;;;9.07;100.00;101104.28;4952257;28;20058;-62
2024/03/22 01:10:10;;;;;;;39.38;7.32;;;;;;;9.07;100.00;101109.00;4961497;28;20047;-63
2024/03/22 01:12:38;;;;;;;46.00;8.95;;;;;;;9.05;100.00;101117.59;4933391;29;20421;-62
2024/03/22 01:15:06;;;;;;;28.10;6.13;;;;;;;9.01;100.00;101110.28;4930069;28;20054;-62
2024/03/22 01:17:33;;;;;;;37.90;8.35;;;;;;;8.98;100.00;101114.53;4948749;28;20059;-62
2024/03/22 01:19:59;;;;;;;28.35;7.65;;;;;;;8.94;100.00;101113.56;4947381;28;20048;-61
2024/03/22 01:22:26;;;;;;;35.88;10.75;;;;;;;8.90;100.00;101120.84;4944636;28;20054;-62
2024/03/22 01:24:53;;;;;;;36.15;6.78;;;;;;;8.89;100.00;101116.50;4943977;28;20224;-62
2024/03/22 01:27:19;;;;;;;30.42;6.15;;;;;;;8.86;100.00;101113.56;4945308;28;20047;-62
2024/03/22 01:29:49;;;;;;;37.28;7.10;;;;;;;8.82;100.00;101110.63;4944673;28;21112;-62
2024/03/22 01:32:15;;;;;;;31.83;8.18;;;;;;;8.82;100.00;101118.91;4946145;28;20571;-63
2024/03/22 01:34:41;;;;;;;38.03;8.43;;;;;;;8.79;100.00;101122.31;4944352;29;20059;-62
2024/03/22 01:37:07;;;;;;;29.75;6.63;;;;;;;8.76;100.00;101114.69;4944781;28;20051;-62
2024/03/22 01:39:34;;;;;;;38.22;7.70;;;;;;;8.73;100.00;101120.03;4946828;28;20130;-63
2024/03/22 01:42:00;;;;;;;33.92;7.70;;;;;;;8.68;100.00;101115.50;4949163;28;20515;-61
2024/03/22 01:44:32;;;;;;;47.65;7.95;;;;;;;8.64;100.00;101117.28;4963752;28;20047;-61
2024/03/22 01:47:01;;;;;;;33.90;7.55;;;;;;;8.62;100.00;101113.22;4953640;28;20058;-62
2024/03/22 01:49:28;;;;;;;35.13;7.65;;;;;;;8.62;100.00;101124.25;4937137;29;20047;-61
2024/03/22 01:51:54;;;;;;;47.30;9.07;;;;;;;8.59;100.00;101114.66;4948428;28;20047;-62
2024/03/22 01:54:21;;;;;;;30.27;7.97;;;;;;;8.57;100.00;101111.44;4944997;29;20502;-62
2024/03/22 01:56:48;;;;;;;38.03;7.20;;;;;;;8.54;100.00;101118.41;4963528;28;20775;-62
2024/03/22 01:59:15;;;;;;;38.33;7.05;;;;;;;8.52;100.00;101111.59;4952316;28;20062;-65
2024/03/22 02:01:42;;;;;;;33.50;7.60;;;;;;;8.50;100.00;101122.09;4899284;29;1234580;-62
2024/03/22 02:04:08;;;;;;;52.08;11.60;;;;;;;8.49;100.00;101109.47;4945771;28;21020;-62
2024/03/22 02:06:34;;;;;;;40.28;7.50;;;;;;;8.48;100.00;101113.34;4949964;28;20066;-63
2024/03/22 02:09:01;;;;;;;38.03;9.18;;;;;;;8.44;100.00;101109.63;4946083;28;20054;-62
2024/03/22 02:11:28;;;;;;;35.58;8.20;;;;;;;8.42;100.00;101120.97;4932794;29;20055;-63
2024/03/22 02:13:55;;;;;;;46.05;7.63;;;;;;;8.40;100.00;101111.38;4944690;28;20047;-62
2024/03/22 02:16:21;;;;;;;49.78;8.02;;;;;;;8.36;100.00;101116.75;4947499;28;20057;-62
2024/03/22 02:18:49;;;;;;;40.05;8.73;;;;;;;8.35;100.00;101111.53;4947399;28;20556;-62
2024/03/22 02:21:15;;;;;;;41.25;6.90;;;;;;;8.34;100.00;101120.97;4945767;28;20043;-62
2024/03/22 02:23:41;;;;;;;36.70;6.40;;;;;;;8.30;100.00;101117.22;4949254;28;20066;-62
2024/03/22 02:26:08;;;;;;;37.05;8.60;;;;;;;8.30;100.00;101119.97;4941667;29;20059;-61
2024/03/22 02:28:35;;;;;;;33.55;6.72;;;;;;;8.26;100.00;101113.44;4948840;28;20051;-61
2024/03/22 02:31:03;;;;;;;38.50;6.53;;;;;;;8.25;100.00;101106.28;4951545;28;20456;-62
2024/03/22 02:33:29;;;;;;;36.28;6.55;;;;;;;8.22;100.00;101115.22;4944611;29;20048;-62
2024/03/22 02:35:56;;;;;;;35.10;7.05;;;;;;;8.19;100.00;101104.81;4943274;28;20050;-62
2024/03/22 02:38:22;;;;;;;45.72;8.00;;;;;;;8.16;100.00;101097.19;4948306;28;20052;-62
2024/03/22 02:40:51;;;;;;;30.45;5.80;;;;;;;8.15;100.00;101103.84;4947699;28;20058;-61
2024/03/22 02:43:18;;;;;;;47.20;9.13;;;;;;;8.11;100.00;101100.09;4946324;29;20800;-61
2024/03/22 02:45:46;;;;;;;39.38;6.60;;;;;;;8.10;100.00;101095.72;4948044;28;20062;-62
2024/03/22 02:48:12;;;;;;;34.03;6.28;;;;;;;8.08;100.00;101100.72;4946752;28;20047;-62
2024/03/22 02:50:39;;;;;;;46.72;8.52;;;;;;;8.06;100.00;101094.72;4947568;28;20070;-62
2024/03/22 02:53:05;;;;;;;40.47;9.82;;;;;;;8.04;100.00;101102.50;4947084;28;20055;-61
2024/03/22 02:55:40;;;;;;;36.15;6.70;;;;;;;7.99;100.00;101100.72;4927897;28;20063;-64
2024/03/22 02:58:08;;;;;;;41.90;7.60;;;;;;;7.96;100.00;101102.16;4947380;28;20422;-62
2024/03/22 03:00:36;;;;;;;32.67;7.53;;;;;;;7.94;100.00;101100.88;5058403;23;20059;31
2024/03/22 03:03:03;;;;;;;42.92;6.85;;;;;;;7.93;100.00;101113.81;4923925;29;20095;-62
2024/03/22 03:05:29;;;;;;;44.42;8.02;;;;;;;7.93;100.00;101113.81;4894278;29;20056;-62
2024/03/22 03:07:55;;;;;;;60.35;11.55;;;;;;;7.91;100.00;101118.84;4910305;29;20063;-62
2024/03/22 03:10:22;;;;;;;45.67;10.48;;;;;;;7.90;100.00;101119.16;4895354;29;20063;-63
2024/03/22 03:12:48;;;;;;;31.33;7.72;;;;;;;7.86;100.00;101109.91;4909642;29;20052;-62
2024/03/22 03:15:15;;;;;;;24.35;6.00;;;;;;;7.84;100.00;101117.66;4895168;29;20056;-61
2024/03/22 03:17:42;;;;;;;36.05;7.25;;;;;;;7.82;100.00;101115.22;4893797;29;20923;-62
2024/03/22 03:20:10;;;;;;;46.92;9.13;;;;;;;7.83;100.00;101118.81;4892442;29;20067;-62
2024/03/22 03:22:36;;;;;;;46.78;8.23;;;;;;;7.83;100.00;101124.31;4891545;29;20891;-62
2024/03/22 03:25:06;;;;;;;33.38;6.78;;;;;;;7.78;100.00;101114.22;4892569;29;20055;-62
2024/03/22 03:27:33;;;;;;;40.03;7.95;;;;;;;7.74;100.00;101116.00;4877449;29;20052;-62
2024/03/22 03:30:00;;;;;;;31.90;5.70;;;;;;;7.74;100.00;101110.50;4893956;29;20534;-63
2024/03/22 03:32:27;;;;;;;30.58;6.03;;;;;;;7.70;100.00;101104.00;4895437;29;20048;-62
2024/03/22 03:34:53;;;;;;;31.90;6.35;;;;;;;7.70;100.00;101114.22;4889981;29;20060;-62
2024/03/22 03:37:19;;;;;;;31.40;6.60;;;;;;;7.66;100.00;101108.50;4893256;29;20055;-62
2024/03/22 03:39:46;;;;;;;36.38;8.60;;;;;;;7.63;100.00;101109.13;4894962;29;20052;-62
2024/03/22 03:42:12;;;;;;;22.65;4.82;;;;;;;7.62;100.00;101107.53;4900156;29;20051;-62
2024/03/22 03:44:38;;;;;;;35.05;5.45;;;;;;;7.60;100.00;101109.78;4894674;29;20048;-62
2024/03/22 03:47:05;;;;;;;37.78;5.03;;;;;;;7.59;100.00;101107.34;4907127;29;20099;-63
2024/03/22 03:49:31;;;;;;;26.02;7.32;;;;;;;7.58;100.00;101109.28;4893209;29;20048;-63
2024/03/22 03:51:57;;;;;;;29.17;5.15;;;;;;;7.55;100.00;101112.66;4894200;29;20044;-62
2024/03/22 03:54:23;;;;;;;26.20;4.82;;;;;;;7.54;100.00;101105.53;4891817;29;20056;-62
2024/03/22 03:56:50;;;;;;;29.17;5.05;;;;;;;7.51;100.00;101111.69;4892130;29;20134;-62
2024/03/22 03:59:16;;;;;;;31.20;7.13;;;;;;;7.48;100.00;101122.50;4898304;29;20055;-62
2024/03/22 04:01:42;;;;;;;24.05;4.82;;;;;;;7.46;100.00;101111.00;4883273;29;20056;-62
2024/03/22 04:04:08;;;;;;;33.67;6.70;;;;;;;7.45;100.00;101112.94;4887865;29;20049;-62
2024/03/22 04:06:35;;;;;;;26.77;5.60;;;;;;;7.40;100.00;101110.31;4873426;29;20053;-62
2024/03/22 04:09:02;;;;;;;22.85;4.57;;;;;;;7.34;100.00;101111.56;4873171;29;20053;-62
2024/03/22 04:11:29;;;;;;;26.70;5.50;;;;;;;7.32;100.00;101119.34;4888807;29;20159;-62
2024/03/22 04:13:55;;;;;;;23.42;5.20;;;;;;;7.31;100.00;101114.94;4873106;29;20064;-62
2024/03/22 04:16:22;;;;;;;27.25;4.97;;;;;;;7.29;100.00;101114.44;4874581;29;20056;-62
2024/03/22 04:18:48;;;;;;;39.28;6.97;;;;;;;7.27;100.00;101122.22;4873072;29;20061;-61
2024/03/22 04:21:15;;;;;;;29.88;4.55;;;;;;;7.24;100.00;101120.91;4872275;29;20400;-63
2024/03/22 04:23:41;;;;;;;24.30;4.60;;;;;;;7.24;100.00;101120.09;4874139;29;20096;-60
2024/03/22 04:26:08;;;;;;;30.63;8.65;;;;;;;7.19;100.00;101126.53;4891593;29;20055;-62
2024/03/22 04:28:34;;;;;;;27.92;5.18;;;;;;;7.19;100.00;101111.97;4874530;29;20056;-61
2024/03/22 04:31:01;;;;;;;22.10;5.80;;;;;;;7.18;100.00;101111.16;4889205;29;20053;-62
2024/03/22 04:33:28;;;;;;;28.70;5.30;;;;;;;7.17;100.00;101112.28;4872311;29;20475;-62
2024/03/22 04:35:56;;;;;;;41.95;6.60;;;;;;;7.14;100.00;101117.59;4866920;29;20052;-60
2024/03/22 04:38:23;;;;;;;31.50;4.85;;;;;;;7.13;100.00;101116.78;4872980;29;20060;-62
2024/03/22 04:40:49;;;;;;;25.85;5.53;;;;;;;7.11;100.00;101115.47;4874915;29;20056;-61
2024/03/22 04:43:16;;;;;;;40.13;6.72;;;;;;;7.06;99.78;101121.09;4887476;29;20045;-61
2024/03/22 04:45:46;;;;;;;28.77;4.75;;;;;;;7.02;100.00;101120.91;4893680;29;20063;-62
2024/03/22 04:48:14;;;;;;;31.90;5.53;;;;;;;7.01;99.95;101130.31;4875761;29;21067;-62
2024/03/22 04:50:40;;;;;;;29.77;5.47;;;;;;;6.99;100.00;101132.53;4905534;29;20816;-62
2024/03/22 04:53:07;;;;;;;31.77;4.85;;;;;;;6.96;99.94;101133.19;4890064;29;20067;-62
2024/03/22 04:55:33;;;;;;;25.05;4.72;;;;;;;6.92;100.00;101137.66;4872449;29;20502;-62
2024/03/22 04:58:00;;;;;;;31.02;5.60;;;;;;;6.90;100.00;101133.59;4903764;29;20044;-62
2024/03/22 05:00:28;;;;;;;30.02;5.82;;;;;;;6.88;99.95;101124.84;4904318;29;20052;-62
2024/03/22 05:02:54;;;;;;;39.22;8.10;;;;;;;6.85;100.00;101130.97;4918863;29;20060;-61
2024/03/22 05:05:21;;;;;;;29.60;6.45;;;;;;;6.84;100.00;101138.41;4903999;29;20398;-62
2024/03/22 05:07:47;;;;;;;27.58;5.68;;;;;;;6.80;100.00;101131.91;4904034;29;20085;-62
2024/03/22 05:10:15;;;;;;;29.67;6.15;;;;;;;6.80;100.00;101131.91;4919800;29;20056;-61
2024/03/22 05:12:41;;;;;;;29.63;4.68;;;;;;;6.80;100.00;101139.34;4923384;29;20052;-61
2024/03/22 05:15:08;;;;;;;30.70;5.45;;;;;;;6.76;99.86;101144.66;4930495;29;20056;-62
2024/03/22 05:17:34;;;;;;;38.03;6.22;;;;;;;6.74;100.00;101139.47;4923028;29;20048;-62
2024/03/22 05:20:01;;;;;;;27.60;5.28;;;;;;;6.73;100.00;101148.81;4887512;29;20060;-62
2024/03/22 05:22:27;;;;;;;32.17;5.53;;;;;;;6.70;100.00;101138.44;4892102;29;20064;-62
2024/03/22 05:24:54;;;;;;;17.92;3.35;;;;;;;6.68;99.86;101137.94;4892992;29;20060;-63
2024/03/22 05:27:20;;;;;;;23.42;4.43;;;;;;;6.69;100.00;101144.25;4893900;29;20048;-61
2024/03/22 05:29:46;;;;;;;23.13;4.68;;;;;;;6.66;99.88;101145.69;4892009;29;20072;-61
2024/03/22 05:32:13;;;;;;;24.98;5.30;;;;;;;6.66;99.88;101147.63;4923893;29;20059;-62
2024/03/22 05:34:40;;;;;;;34.22;5.80;;;;;;;6.64;99.88;101142.44;4923463;29;20055;-63
2024/03/22 05:37:06;;;;;;;25.02;5.35;;;;;;;6.59;99.80;101128.78;4924632;29;20082;-62
2024/03/22 05:39:32;;;;;;;22.77;4.75;;;;;;;6.59;99.80;101131.53;4924256;29;20082;-62
2024/03/22 05:41:58;;;;;;;21.95;5.55;;;;;;;6.58;99.48;101146.44;4924028;29;20061;-62
2024/03/22 05:44:25;;;;;;;17.27;4.38;;;;;;;6.57;99.60;101153.03;4908293;29;20053;-62
2024/03/22 05:46:51;;;;;;;26.02;4.60;;;;;;;6.55;99.68;101143.47;4889432;29;20057;-62
2024/03/22 05:49:17;;;;;;;23.92;4.32;;;;;;;6.51;99.50;101143.25;4922451;29;20064;-61
2024/03/22 05:51:43;;;;;;;26.50;6.35;;;;;;;6.49;99.64;101144.69;4923808;29;20056;-61
2024/03/22 05:54:10;;;;;;;31.80;5.15;;;;;;;6.45;99.74;101150.03;4923207;29;20533;-61
2024/03/22 05:56:36;;;;;;;21.70;5.35;;;;;;;6.44;99.43;101151.13;4908076;29;20052;-63
2024/03/22 05:59:03;;;;;;;27.95;5.00;;;;;;;6.41;99.46;101167.41;4892491;29;20040;-61
2024/03/22 06:01:29;;;;;;;32.40;6.40;;;;;;;6.38;99.50;101149.59;4927196;29;20063;-62
2024/03/22 06:03:55;;;;;;;20.23;5.90;;;;;;;6.35;99.66;101161.25;4893801;29;20044;-62
2024/03/22 06:06:25;;;;;;;24.80;4.20;;;;;;;6.35;99.81;101154.91;4895218;29;20044;-61
2024/03/22 06:08:54;;;;;;;22.20;3.75;;;;;;;6.31;99.46;101160.22;4892210;29;20060;-62
2024/03/22 06:11:24;;;;;;;33.38;6.05;;;;;;;6.27;99.75;101156.47;4895548;29;20063;-62
2024/03/22 06:13:51;;;;;;;27.20;4.22;;;;;;;6.28;99.78;101149.81;4896792;29;20055;-62
2024/03/22 06:16:17;;;;;;;22.95;4.32;;;;;;;6.25;99.68;101152.38;4896319;29;20048;-62
2024/03/22 06:18:43;;;;;;;22.33;4.47;;;;;;;6.21;99.65;101160.41;4892712;29;20064;-62
2024/03/22 06:21:09;;;;;;;21.10;4.78;;;;;;;6.18;99.66;101155.53;4896005;29;20048;-62
2024/03/22 06:23:36;;;;;;;23.58;4.07;;;;;;;6.16;99.92;101159.72;4894994;29;20067;-62
2024/03/22 06:26:02;;;;;;;16.65;4.32;;;;;;;6.15;100.00;101167.13;4895565;29;20068;-61
2024/03/22 06:28:28;;;;;;;22.00;5.10;;;;;;;6.14;99.98;101160.03;4897737;29;20054;-63
2024/03/22 06:30:55;;;;;;;23.38;5.20;;;;;;;6.10;99.90;101165.31;4920484;29;20498;-62
2024/03/22 06:33:21;;;;;;;19.90;3.70;;;;;;;6.09;99.94;101169.16;4894389;29;20051;-61
2024/03/22 06:35:47;;;;;;;22.90;3.90;;;;;;;6.05;100.00;101168.16;4894243;29;20044;-61
2024/03/22 06:38:14;;;;;;;16.88;4.35;;;;;;;6.05;100.00;101167.34;4894850;29;20055;-61
2024/03/22 06:40:40;;;;;;;31.90;4.25;;;;;;;6.06;100.00;101168.97;4893772;29;20059;-61
2024/03/22 06:43:06;;;;;;;26.13;4.65;;;;;;;6.03;100.00;101170.41;4878401;29;20673;-61
2024/03/22 06:45:33;;;;;;;24.10;5.45;;;;;;;6.03;100.00;101175.09;4910449;29;21553;-62
2024/03/22 06:47:59;;;;;;;21.83;4.70;;;;;;;6.04;100.00;101173.94;4895072;29;20055;-62
2024/03/22 06:50:25;;;;;;;20.60;4.53;;;;;;;6.03;100.00;101191.56;4900186;29;20056;-61
2024/03/22 06:52:54;;;;;;;24.35;4.15;;;;;;;6.02;100.00;101178.94;4895765;29;20055;-62
2024/03/22 06:55:21;;;;;;;32.97;5.60;;;;;;;6.02;100.00;101184.44;4895083;29;20067;-62
2024/03/22 06:57:49;;;;;;;14.32;4.05;;;;;;;6.00;100.00;101183.94;4909028;29;20059;-61
2024/03/22 07:00:18;;;;;;;20.13;4.10;;;;;;;6.01;100.00;101188.31;4895276;29;20091;-61
2024/03/22 07:02:45;;;;;;;25.50;4.82;;;;;;;6.02;100.00;101190.75;4893773;29;20071;-62
2024/03/22 07:05:11;;;;;;;31.42;4.38;;;;;;;6.03;100.00;101197.06;4893082;29;20052;-62
2024/03/22 07:07:38;;;;;;;22.50;3.92;;;;;;;6.05;100.00;101200.31;4888046;29;20048;-62
2024/03/22 07:10:07;;;;;;;20.90;4.60;;;;;;;6.07;100.00;101198.06;4925323;29;20052;-62
2024/03/22 07:12:34;;;;;;;19.50;4.70;;;;;;;6.10;100.00;101209.28;4894088;29;20055;-61
2024/03/22 07:15:02;;;;;;;20.27;3.65;;;;;;;6.11;100.00;101199.13;4907984;29;20048;-61
2024/03/22 07:17:29;;;;;;;14.75;3.17;;;;;;;6.12;100.00;101207.03;4893171;29;20059;-61
2024/03/22 07:19:56;;;;;;;28.70;4.22;;;;;;;6.14;100.00;101206.75;4895868;29;20066;-62
2024/03/22 07:22:22;;;;;;;22.17;3.53;;;;;;;6.17;100.00;101211.63;4893442;29;20056;-63
2024/03/22 07:24:49;;;;;;;20.90;4.00;;;;;;;6.18;100.00;101224.25;4894545;29;20048;-62
2024/03/22 07:27:15;;;;;;;25.60;4.45;;;;;;;6.22;100.00;101213.47;4907703;29;20422;-62
2024/03/22 07:29:42;;;;;;;22.48;3.75;;;;;;;6.23;100.00;101218.66;4922349;29;20091;-63
2024/03/22 07:32:08;;;;;;;18.25;2.72;;;;;;;6.26;100.00;101220.81;4894872;29;20051;-62
2024/03/22 07:34:34;;;;;;;16.98;3.30;;;;;;;6.27;100.00;101213.38;4891033;29;20056;-60
2024/03/22 07:37:01;;;;;;;17.27;3.75;;;;;;;6.26;100.00;101220.81;4924993;29;20062;-59
2024/03/22 07:39:27;;;;;;;18.02;3.47;;;;;;;6.28;100.00;101213.06;4925071;29;20063;-59
2024/03/22 07:41:53;;;;;;;10.52;3.30;;;;;;;6.32;100.00;101216.84;4894570;29;20048;-60
2024/03/22 07:44:20;;;;;;;14.73;3.13;;;;;;;6.34;100.00;101208.28;4921110;29;20048;-60
2024/03/22 07:46:47;;;;;;;16.35;3.05;;;;;;;6.35;100.00;101221.72;4918642;29;20052;-59
2024/03/22 07:49:13;;;;;;;16.48;2.95;;;;;;;6.35;100.00;101216.25;4892645;29;20059;-61
2024/03/22 07:51:39;;;;;;;13.55;3.75;;;;;;;6.39;100.00;101217.25;4893318;29;20428;-59
2024/03/22 07:54:06;;;;;;;19.13;3.03;;;;;;;6.40;100.00;101221.63;4893489;29;20054;-59
2024/03/22 07:56:32;;;;;;;9.70;3.03;;;;;;;6.43;100.00;101217.44;4893388;29;20065;-59
2024/03/22 07:58:59;;;;;;;16.23;3.03;;;;;;;6.45;99.88;101231.72;4907268;29;20745;-60
2024/03/22 08:01:26;;;;;;;14.68;2.83;;;;;;;6.46;99.86;101220.38;4891129;29;20067;-59
2024/03/22 08:03:53;;;;;;;20.05;3.60;;;;;;;6.47;99.94;101216.53;4891715;29;20078;-62
2024/03/22 08:06:19;;;;;;;13.35;3.33;;;;;;;6.51;100.00;101230.50;4893277;29;20059;-63
2024/03/22 08:08:46;;;;;;;11.52;3.85;;;;;;;6.56;100.00;101222.94;4894036;29;20920;-62
2024/03/22 08:11:12;;;;;;;15.90;3.40;;;;;;;6.62;99.79;101221.69;4893233;29;20052;-62
2024/03/22 08:13:38;;;;;;;22.00;3.50;;;;;;;6.68;99.93;101223.22;4908721;29;20828;-62
2024/03/22 08:16:05;;;;;;;14.55;2.70;;;;;;;6.68;99.70;101234.25;4906398;29;20044;-62
2024/03/22 08:18:35;;;;;;;13.13;4.18;;;;;;;6.71;99.56;101241.88;4893471;29;20434;-62
2024/03/22 08:21:02;;;;;;;15.27;2.35;;;;;;;6.71;99.21;101230.88;4892893;29;20063;-62
2024/03/22 08:23:28;;;;;;;10.95;2.47;;;;;;;6.75;99.21;101234.63;4875776;29;20075;-59
2024/03/22 08:25:54;;;;;;;15.27;3.78;;;;;;;6.80;99.51;101227.41;4889761;29;20144;-60
2024/03/22 08:28:21;;;;;;;11.93;2.50;;;;;;;6.86;99.18;101228.94;4890014;29;20051;-59
2024/03/22 08:30:47;;;;;;;27.98;2.58;;;;;;;6.91;99.08;101220.56;4892125;29;20051;-60
2024/03/22 08:33:13;;;;;;;17.25;2.55;;;;;;;6.93;98.83;101221.06;4891517;29;20056;-66
2024/03/22 08:35:39;;;;;;;18.35;4.43;;;;;;;6.98;98.85;101221.75;4889864;29;20054;-66
2024/03/22 08:38:10;;;;;;;19.40;4.18;;;;;;;7.05;98.75;101218.56;4891426;29;20072;-65
2024/03/22 08:40:37;;;;;;;17.77;3.78;;;;;;;7.10;98.59;101212.94;4892150;29;20055;-64
2024/03/22 08:43:05;;;;;;;14.00;2.75;;;;;;;7.16;98.41;101219.97;4890711;29;20533;-65
2024/03/22 08:45:31;;;;;;;13.98;2.75;;;;;;;7.23;98.21;101228.59;4893424;29;20052;-65
2024/03/22 08:47:57;;;;;;;16.20;2.25;;;;;;;7.31;98.24;101233.38;4906101;29;20052;-66
2024/03/22 08:50:23;;;;;;;17.52;3.75;;;;;;;7.40;98.00;101234.28;4892729;29;20040;-64
2024/03/22 08:52:50;;;;;;;15.80;3.25;;;;;;;7.48;98.02;101235.47;4889369;29;20040;-65
2024/03/22 08:55:16;;;;;;;18.80;3.40;;;;;;;7.53;97.77;101230.63;4891670;29;20060;-65
2024/03/22 08:57:42;;;;;;;16.20;3.03;;;;;;;7.60;97.81;101231.00;4892609;29;20059;-65
2024/03/22 09:00:10;;;;;;;20.92;3.20;;;;;;;7.74;98.03;101234.53;4895805;29;20446;-64
2024/03/22 09:02:37;;;;;;;18.65;4.05;;;;;;;7.87;98.34;101224.53;4890053;29;20064;-62
2024/03/22 09:05:05;;;;;;;19.70;3.85;;;;;;;8.04;98.68;101229.34;4890988;29;20044;-64
2024/03/22 09:07:31;;;;;;;18.55;3.00;;;;;;;8.21;98.97;101229.41;4890778;29;20051;-62
2024/03/22 09:09:58;;;;;;;18.35;3.20;;;;;;;8.40;99.31;101221.75;4892793;29;20053;-65
2024/03/22 09:12:26;;;;;;;14.55;3.38;;;;;;;8.64;100.00;101216.63;4892273;29;20421;-65
2024/03/22 09:14:52;;;;;;;20.92;3.97;;;;;;;9.00;100.00;101239.28;4892227;29;20052;-64
2024/03/22 09:17:19;;;;;;;22.65;4.47;;;;;;;9.48;100.00;101225.31;4891496;29;20050;-64
2024/03/22 09:19:45;;;;;;;10.90;2.70;;;;;;;10.21;100.00;101223.44;4896148;29;20071;-65
2024/03/22 09:22:12;;;;;;;15.88;3.20;;;;;;;11.07;100.00;101226.53;4890128;29;20055;-65
2024/03/22 09:24:38;;;;;;;10.82;2.97;;;;;;;12.00;100.00;101231.59;4923324;29;20714;-63
2024/03/22 09:27:08;;;;;;;15.48;2.75;;;;;;;12.86;98.12;101236.91;4890524;29;20059;-64
2024/03/22 09:29:36;;;;;;;14.70;2.55;;;;;;;13.70;94.67;101249.84;4892425;29;20055;-65
2024/03/22 09:32:03;;;;;;;17.67;5.88;;;;;;;14.27;90.80;101245.84;4876812;29;20095;-63
2024/03/22 09:34:31;;;;;;;16.10;4.28;;;;;;;14.56;87.65;101248.22;4892594;29;20068;-66
2024/03/22 09:36:57;;;;;;;13.05;3.42;;;;;;;14.95;85.45;101243.59;4904219;29;20055;-67
2024/03/22 09:39:24;;;;;;;17.23;3.35;;;;;;;15.17;82.83;101246.47;4895944;29;20538;-64
2024/03/22 09:41:51;;;;;;;15.70;3.40;;;;;;;15.36;80.95;101253.25;4903265;29;20063;-62
2024/03/22 09:44:22;;;;;;;10.57;2.92;;;;;;;15.48;78.88;101240.03;4908432;29;20064;-62
2024/03/22 09:46:50;;;;;;;9.45;3.25;;;;;;;15.67;76.44;101258.78;4876250;29;20190;-64
2024/03/22 09:49:17;;;;;;;16.02;4.72;;;;;;;15.89;73.99;101246.84;4909116;29;20051;-63
2024/03/22 09:51:44;;;;;;;11.90;2.40;;;;;;;16.10;72.52;101254.81;4908218;29;20052;-63
2024/03/22 09:54:10;;;;;;;13.25;3.70;;;;;;;16.13;70.15;101251.28;4889569;29;20584;-61
2024/03/22 09:56:40;;;;;;;11.98;2.90;;;;;;;16.32;69.22;101245.69;4874689;29;20055;-61
2024/03/22 09:59:06;;;;;;;19.60;2.60;;;;;;;16.63;66.27;101255.81;4893260;29;20726;-61
2024/03/22 10:01:37;;;;;;;13.32;2.90;;;;;;;16.84;66.38;101242.19;4908767;29;20052;-61
2024/03/22 10:04:03;;;;;;;55.92;6.47;;;;;;;16.74;62.56;101251.22;4912176;29;20064;-61
2024/03/22 10:06:29;;;;;;;14.95;3.05;;;;;;;16.54;61.05;101255.28;4894365;29;20067;-62
2024/03/22 10:08:59;;;;;;;15.15;3.10;;;;;;;16.66;61.01;101253.09;4894338;29;20056;-60
2024/03/22 10:11:27;;;;;;;13.60;2.80;;;;;;;16.62;58.44;101259.81;4902350;29;20063;-60
2024/03/22 10:13:55;;;;;;;13.02;2.22;;;;;;;16.38;57.22;101256.19;4894559;29;20048;-60
2024/03/22 10:16:24;;;;;;;13.13;2.95;;;;;;;16.61;58.32;101260.97;4894649;29;20044;-61
2024/03/22 10:18:50;;;;;;;15.73;2.40;;;;;;;16.87;56.07;101261.00;4894512;29;20060;-60
2024/03/22 10:21:18;;;;;;;9.85;2.78;;;;;;;16.87;54.58;101250.63;4892846;29;20052;-60
2024/03/22 10:23:46;;;;;;;14.75;2.15;;;;;;;16.98;53.71;101245.22;4894505;29;20056;-60
2024/03/22 10:26:13;;;;;;;12.93;2.60;;;;;;;16.90;52.32;101249.09;4907728;29;20056;-61
2024/03/22 10:28:46;;;;;;;11.95;2.63;;;;;;;16.80;53.06;101246.94;4901697;29;20053;-60
2024/03/22 10:31:13;;;;;;;26.50;3.80;;;;;;;16.77;51.75;101261.66;4895404;29;20118;-61
2024/03/22 10:33:44;;;;;;;13.13;2.72;;;;;;;16.96;52.06;101242.00;4895023;29;20060;-60
2024/03/22 10:36:12;;;;;;;16.05;2.83;;;;;;;17.06;50.27;101246.94;4926196;29;20520;-60
2024/03/22 10:38:40;;;;;;;10.45;2.78;;;;;;;17.05;49.65;101245.31;4910295;29;20087;-61
2024/03/22 10:41:06;;;;;;;8.45;2.58;;;;;;;17.12;48.76;101250.22;4926352;29;20048;-60
2024/03/22 10:43:33;;;;;;;14.52;2.28;;;;;;;17.14;48.31;101243.06;4925320;29;20501;-61
2024/03/22 10:46:03;;;;;;;7.35;2.42;;;;;;;17.24;48.56;101236.00;4898798;29;20063;-61
2024/03/22 10:48:31;;;;;;;11.85;3.10;;;;;;;17.27;47.24;101240.84;4894624;29;20048;-61
2024/03/22 10:51:01;;;;;;;11.40;3.00;;;;;;;17.03;47.30;101237.31;4894784;29;20060;-62
2024/03/22 10:53:31;;;;;;;7.68;1.70;;;;;;;16.96;47.24;101236.41;4892118;29;20054;-61
2024/03/22 10:56:01;;;;;;;11.40;2.30;;;;;;;16.82;46.24;101230.56;4894199;29;20064;-62
2024/03/22 10:58:27;;;;;;;9.07;2.63;;;;;;;16.76;46.43;101243.28;4894182;29;20071;-60
2024/03/22 11:00:55;;;;;;;12.60;2.50;;;;;;;16.55;46.09;101234.53;4894155;29;20055;-60
2024/03/22 11:03:24;;;;;;;9.50;2.30;;;;;;;15.96;46.52;101233.03;4909204;29;20055;-60
2024/03/22 11:05:55;;;;;;;10.18;2.20;;;;;;;15.42;46.64;101223.91;4893811;29;20450;-62
2024/03/22 11:08:29;;;;;;;10.35;2.72;;;;;;;14.77;47.76;101220.88;4894477;29;20056;-60
2024/03/22 11:11:10;;;;;;;8.07;1.92;;;;;;;14.25;48.21;101214.72;4891624;29;20510;-60
2024/03/22 11:13:37;;;;;;;6.97;2.22;;;;;;;13.79;49.32;101203.16;4906780;29;20056;-61
2024/03/22 11:16:03;;;;;;;7.97;2.40;;;;;;;13.43;50.25;101208.88;4890441;29;20049;-60
2024/03/22 11:18:29;;;;;;;8.60;2.10;;;;;;;13.07;51.43;101198.69;4889327;29;20056;-61